Time;durP1;ratioP1;P1;durP2;ratioP2;P2;SDS_P1;SDS_P2;PMS_P1;PMS_P2;Temp;Humidity;BMP_temperature;BMP_pressure;BME280_temperature;BME280_humidity;BME280_pressure;Samples;Min_cycle;Max_cycle;Signal;HPM_P1;HPM_P2
2023/06/27 00:01:39;;;;;;;7.80;2.80;;;;;;;;;;5005901;28;20027;-71
2023/06/27 00:04:04;;;;;;;7.93;2.50;;;;;;;;;;5000016;28;20046;-71
2023/06/27 00:06:30;;;;;;;11.43;2.50;;;;;;;;;;5002318;28;20026;-71
2023/06/27 00:08:55;;;;;;;7.93;2.50;;;;;;;;;;4997404;28;20030;-71
2023/06/27 00:11:20;;;;;;;11.03;2.63;;;;;;;;;;5004593;28;20097;-71
2023/06/27 00:13:46;;;;;;;9.90;2.70;;;;;;;;;;5001561;28;20468;-71
2023/06/27 00:16:14;;;;;;;11.50;2.80;;;;;;;;;;4993725;28;20110;-71
2023/06/27 00:18:47;;;;;;;13.57;3.07;;;;;;;;;;5005606;28;20399;-71
2023/06/27 00:21:13;;;;;;;8.20;2.63;;;;;;;;;;5003467;28;20064;-71
2023/06/27 00:23:39;;;;;;;8.27;2.80;;;;;;;;;;5002055;28;20018;-71
2023/06/27 00:26:06;;;;;;;5.53;2.50;;;;;;;;;;4995453;28;20035;-71
2023/06/27 00:28:32;;;;;;;8.30;2.80;;;;;;;;;;5004420;28;20019;-71
2023/06/27 00:30:57;;;;;;;8.00;2.83;;;;;;;;;;5002720;28;20481;-71
2023/06/27 00:33:22;;;;;;;7.07;2.63;;;;;;;;;;4997803;28;20019;-71
2023/06/27 00:35:48;;;;;;;10.10;2.87;;;;;;;;;;5007563;28;20022;-71
2023/06/27 00:38:13;;;;;;;11.20;3.20;;;;;;;;;;5008854;28;20041;-71
2023/06/27 00:40:38;;;;;;;9.00;3.10;;;;;;;;;;5003763;28;20021;-71
2023/06/27 00:43:03;;;;;;;9.10;3.23;;;;;;;;;;5003271;28;20025;-71
2023/06/27 00:45:29;;;;;;;12.90;3.23;;;;;;;;;;5001427;28;20033;-71
2023/06/27 00:47:56;;;;;;;8.67;3.47;;;;;;;;;;5004041;28;20022;-71
2023/06/27 00:50:22;;;;;;;8.77;3.30;;;;;;;;;;5006554;28;20018;-71
2023/06/27 00:52:48;;;;;;;8.63;3.33;;;;;;;;;;5003557;28;20026;-71
2023/06/27 00:55:13;;;;;;;12.33;3.57;;;;;;;;;;5010639;28;20061;-71
2023/06/27 00:57:40;;;;;;;13.13;4.20;;;;;;;;;;5010809;28;20042;-71
2023/06/27 01:03:08;;;;;;;6.77;2.73;;;;;;;;;;4999090;23;20539;-60
2023/06/27 01:05:35;;;;;;;20.17;4.83;;;;;;;;;;4967082;28;20023;-60
2023/06/27 01:08:08;;;;;;;11.53;3.50;;;;;;;;;;4976686;28;20472;-60
2023/06/27 01:10:53;;;;;;;9.83;3.27;;;;;;;;;;4979316;28;20346;-60
2023/06/27 01:13:42;;;;;;;9.10;3.57;;;;;;;;;;4974686;28;20027;-60
2023/06/27 01:16:08;;;;;;;9.27;3.20;;;;;;;;;;4963904;28;20039;-60
2023/06/27 01:18:34;;;;;;;11.83;3.63;;;;;;;;;;4972467;28;20062;-60
2023/06/27 01:21:00;;;;;;;10.70;3.63;;;;;;;;;;4970694;28;20082;-60
2023/06/27 01:23:28;;;;;;;10.00;3.30;;;;;;;;;;4967134;28;20036;-59
2023/06/27 01:26:00;;;;;;;11.00;3.60;;;;;;;;;;4974365;28;20029;-60
2023/06/27 01:28:25;;;;;;;;;;;;;;;;;;4971804;28;20110;-60
2023/06/27 01:30:50;;;;;;;10.00;3.20;;;;;;;;;;4963817;28;20009;-60
2023/06/27 01:33:21;;;;;;;13.00;3.67;;;;;;;;;;4973529;28;20031;-59
2023/06/27 01:35:56;;;;;;;12.53;3.47;;;;;;;;;;4965159;28;20033;-60
2023/06/27 01:38:25;;;;;;;8.17;3.60;;;;;;;;;;4970322;28;20312;-59
2023/06/27 01:40:52;;;;;;;9.60;3.60;;;;;;;;;;4972564;28;20384;-60
2023/06/27 01:43:18;;;;;;;10.07;3.77;;;;;;;;;;4971073;28;20027;-59
2023/06/27 01:45:43;;;;;;;8.47;3.33;;;;;;;;;;4965929;28;20019;-60
2023/06/27 01:48:09;;;;;;;11.93;3.47;;;;;;;;;;4982164;28;20026;-60
2023/06/27 01:50:35;;;;;;;11.27;3.87;;;;;;;;;;4974932;28;20023;-59
2023/06/27 01:53:00;;;;;;;9.53;4.03;;;;;;;;;;4974482;28;20029;-59
2023/06/27 01:55:25;;;;;;;11.63;3.70;;;;;;;;;;4967879;28;20491;-59
2023/06/27 01:57:51;;;;;;;8.90;3.47;;;;;;;;;;4970423;28;20026;-59
2023/06/27 02:00:17;;;;;;;12.30;3.70;;;;;;;;;;4968853;28;20034;-59
2023/06/27 02:02:42;;;;;;;11.87;4.57;;;;;;;;;;4958940;28;20075;-59
2023/06/27 02:05:08;;;;;;;9.47;3.60;;;;;;;;;;4952964;28;20382;-60
2023/06/27 02:07:33;;;;;;;9.67;4.10;;;;;;;;;;4951972;28;20023;-59
2023/06/27 02:09:58;;;;;;;10.20;3.37;;;;;;;;;;4952560;28;20020;-59
2023/06/27 02:12:23;;;;;;;9.83;3.70;;;;;;;;;;4956643;28;20027;-60
2023/06/27 02:14:49;;;;;;;8.93;3.80;;;;;;;;;;4946588;28;20047;-60
2023/06/27 02:17:14;;;;;;;11.37;3.87;;;;;;;;;;4946552;28;20023;-60
2023/06/27 02:19:39;;;;;;;10.90;4.43;;;;;;;;;;4947074;28;20106;-60
2023/06/27 02:22:05;;;;;;;10.63;4.00;;;;;;;;;;4952310;28;20027;-60
2023/06/27 02:24:30;;;;;;;9.20;3.80;;;;;;;;;;4954138;28;20022;-60
2023/06/27 02:26:55;;;;;;;10.00;4.27;;;;;;;;;;4954404;28;20858;-61
2023/06/27 02:29:20;;;;;;;8.70;4.13;;;;;;;;;;4954454;28;20015;-61
2023/06/27 02:31:46;;;;;;;9.07;4.07;;;;;;;;;;4952714;28;20023;-59
2023/06/27 02:34:12;;;;;;;11.87;4.43;;;;;;;;;;4953667;28;20046;-59
2023/06/27 02:36:37;;;;;;;9.23;3.80;;;;;;;;;;4955601;28;20038;-59
2023/06/27 02:39:03;;;;;;;8.17;4.17;;;;;;;;;;4952822;28;20023;-59
2023/06/27 02:41:28;;;;;;;8.27;4.30;;;;;;;;;;4952426;28;20027;-59
2023/06/27 02:43:53;;;;;;;13.93;4.67;;;;;;;;;;4947616;28;20023;-58
2023/06/27 02:46:18;;;;;;;11.17;5.07;;;;;;;;;;4955033;28;20141;-59
2023/06/27 02:48:44;;;;;;;10.73;4.80;;;;;;;;;;4952854;28;20391;-59
2023/06/27 02:51:09;;;;;;;15.03;5.23;;;;;;;;;;4951109;28;20397;-59
2023/06/27 02:53:34;;;;;;;10.77;4.57;;;;;;;;;;4953346;28;20102;-64
2023/06/27 02:56:03;;;;;;;10.60;4.80;;;;;;;;;;4953442;28;20070;-65
2023/06/27 02:58:31;;;;;;;10.57;4.80;;;;;;;;;;4946741;28;20027;-65
2023/06/27 03:00:59;;;;;;;8.60;4.50;;;;;;;;;;4947686;28;20027;-65
2023/06/27 03:03:24;;;;;;;12.20;4.90;;;;;;;;;;4946618;28;20127;-65
2023/06/27 03:05:50;;;;;;;13.97;5.33;;;;;;;;;;4949717;28;20039;-64
2023/06/27 03:08:16;;;;;;;13.23;5.07;;;;;;;;;;4954907;28;20027;-65
2023/06/27 03:10:41;;;;;;;14.83;5.20;;;;;;;;;;4953749;28;20385;-65
2023/06/27 03:13:07;;;;;;;13.90;5.30;;;;;;;;;;4948667;28;20353;-65
2023/06/27 03:15:32;;;;;;;14.30;5.60;;;;;;;;;;4953609;28;20106;-65
2023/06/27 03:17:57;;;;;;;11.00;5.47;;;;;;;;;;4948350;28;20480;-65
2023/06/27 03:20:23;;;;;;;12.57;5.30;;;;;;;;;;4952752;28;20436;-65
2023/06/27 03:22:48;;;;;;;13.53;5.60;;;;;;;;;;4953355;28;20038;-65
2023/06/27 03:25:13;;;;;;;11.83;5.60;;;;;;;;;;4957173;28;20018;-65
2023/06/27 03:27:39;;;;;;;13.40;6.03;;;;;;;;;;4953596;28;20432;-65
2023/06/27 03:30:04;;;;;;;11.97;6.00;;;;;;;;;;4947200;28;20098;-65
2023/06/27 03:32:30;;;;;;;12.73;5.70;;;;;;;;;;4950787;28;20052;-65
2023/06/27 03:34:55;;;;;;;14.33;5.80;;;;;;;;;;4947834;28;20031;-64
2023/06/27 03:37:20;;;;;;;14.80;6.30;;;;;;;;;;4952002;28;20024;-64
2023/06/27 03:39:46;;;;;;;11.07;5.70;;;;;;;;;;4956828;28;20551;-65
2023/06/27 03:42:11;;;;;;;13.40;6.00;;;;;;;;;;4952337;28;20023;-65
2023/06/27 03:44:37;;;;;;;12.80;6.07;;;;;;;;;;4946305;28;20114;-65
2023/06/27 03:47:02;;;;;;;12.37;6.00;;;;;;;;;;4953150;28;20022;-65
2023/06/27 03:49:27;;;;;;;12.70;6.13;;;;;;;;;;4952889;28;20493;-66
2023/06/27 03:51:53;;;;;;;14.43;5.83;;;;;;;;;;4953306;28;20030;-64
2023/06/27 03:54:18;;;;;;;11.53;5.63;;;;;;;;;;4951205;28;20027;-64
2023/06/27 03:56:43;;;;;;;14.07;5.70;;;;;;;;;;4946942;28;20102;-64
2023/06/27 03:59:09;;;;;;;9.70;5.43;;;;;;;;;;4951104;28;20054;-64
2023/06/27 04:01:34;;;;;;;9.40;5.13;;;;;;;;;;4950550;28;20027;-64
2023/06/27 04:04:00;;;;;;;12.07;5.73;;;;;;;;;;4950641;28;20050;-64
2023/06/27 04:06:25;;;;;;;10.23;4.97;;;;;;;;;;4951965;28;20030;-64
2023/06/27 04:08:50;;;;;;;14.80;5.57;;;;;;;;;;4951989;28;20023;-63
2023/06/27 04:11:15;;;;;;;10.03;4.60;;;;;;;;;;4946219;28;20485;-63
2023/06/27 04:13:41;;;;;;;8.47;4.40;;;;;;;;;;4947829;28;20098;-63
2023/06/27 04:16:06;;;;;;;8.70;3.97;;;;;;;;;;4950188;28;20496;-63
2023/06/27 04:18:31;;;;;;;11.53;4.57;;;;;;;;;;4953672;28;20541;-63
2023/06/27 04:20:57;;;;;;;10.55;4.10;;;;;;;;;;4950006;28;20070;-63
2023/06/27 04:23:22;;;;;;;7.70;3.88;;;;;;;;;;4956320;28;20110;-63
2023/06/27 04:26:02;;;;;;;13.48;4.50;;;;;;;;;;4949013;28;20071;-63
2023/06/27 04:28:27;;;;;;;7.90;3.70;;;;;;;;;;4954499;28;20019;-63
2023/06/27 04:30:53;;;;;;;10.30;3.63;;;;;;;;;;4950407;28;20038;-63
2023/06/27 04:33:18;;;;;;;7.57;3.65;;;;;;;;;;4948064;28;20069;-63
2023/06/27 04:35:43;;;;;;;8.65;3.78;;;;;;;;;;4947645;28;20046;-63
2023/06/27 04:38:08;;;;;;;8.43;3.50;;;;;;;;;;4951355;28;20062;-63
2023/06/27 04:40:34;;;;;;;11.65;3.50;;;;;;;;;;4951778;28;20023;-63
2023/06/27 04:42:59;;;;;;;7.68;3.53;;;;;;;;;;4951334;28;20024;-63
2023/06/27 04:45:24;;;;;;;13.40;3.80;;;;;;;;;;4951385;28;20043;-63
2023/06/27 04:47:49;;;;;;;7.93;3.47;;;;;;;;;;4945495;28;20467;-63
2023/06/27 04:50:18;;;;;;;10.65;3.55;;;;;;;;;;4950093;28;20544;-63
2023/06/27 04:52:44;;;;;;;9.27;3.67;;;;;;;;;;4949957;28;20019;-63
2023/06/27 04:55:09;;;;;;;8.45;3.60;;;;;;;;;;4947365;28;20035;-63
2023/06/27 04:57:34;;;;;;;7.20;3.20;;;;;;;;;;4950907;28;20151;-63
2023/06/27 05:00:00;;;;;;;6.32;3.08;;;;;;;;;;4947235;28;20086;-63
2023/06/27 05:02:25;;;;;;;9.57;3.00;;;;;;;;;;4947016;28;20060;-63
2023/06/27 05:04:50;;;;;;;8.88;3.60;;;;;;;;;;4950675;28;20070;-63
2023/06/27 05:07:16;;;;;;;7.53;3.25;;;;;;;;;;4957812;28;20511;-63
2023/06/27 05:09:41;;;;;;;7.75;3.00;;;;;;;;;;4954389;28;20043;-63
2023/06/27 05:12:06;;;;;;;5.25;3.00;;;;;;;;;;4955612;28;20027;-58
2023/06/27 05:14:32;;;;;;;7.50;3.20;;;;;;;;;;4947276;28;20034;-57
2023/06/27 05:16:57;;;;;;;8.35;3.90;;;;;;;;;;4946448;29;20034;-57
2023/06/27 05:19:22;;;;;;;10.07;3.20;;;;;;;;;;4946899;28;20035;-58
2023/06/27 05:21:48;;;;;;;7.88;3.00;;;;;;;;;;4952813;28;20054;-57
2023/06/27 05:24:13;;;;;;;8.13;3.08;;;;;;;;;;4943627;29;20090;-58
2023/06/27 05:26:38;;;;;;;6.13;2.97;;;;;;;;;;4956154;28;20027;-58
2023/06/27 05:29:03;;;;;;;6.55;3.30;;;;;;;;;;4943866;28;20383;-57
2023/06/27 05:31:29;;;;;;;7.07;3.05;;;;;;;;;;4945436;29;20031;-58
2023/06/27 05:33:55;;;;;;;7.53;3.28;;;;;;;;;;4951183;28;20078;-57
2023/06/27 05:36:20;;;;;;;9.48;3.33;;;;;;;;;;4957234;29;20038;-58
2023/06/27 05:38:45;;;;;;;9.25;3.10;;;;;;;;;;4952293;28;20536;-58
2023/06/27 05:41:10;;;;;;;8.40;2.83;;;;;;;;;;4954579;28;20063;-58
2023/06/27 05:43:36;;;;;;;7.72;2.90;;;;;;;;;;4952036;29;20027;-58
2023/06/27 05:46:01;;;;;;;7.18;2.80;;;;;;;;;;4947740;29;20031;-58
2023/06/27 05:48:26;;;;;;;8.38;3.10;;;;;;;;;;4950379;29;20031;-58
2023/06/27 05:50:52;;;;;;;7.03;2.80;;;;;;;;;;4946244;29;20433;-58
2023/06/27 05:53:17;;;;;;;7.75;3.15;;;;;;;;;;4948770;28;20027;-58
2023/06/27 05:55:42;;;;;;;7.40;2.80;;;;;;;;;;4948090;28;20082;-58
2023/06/27 05:58:07;;;;;;;7.65;3.10;;;;;;;;;;4946758;28;20035;-60
2023/06/27 06:00:33;;;;;;;7.60;2.92;;;;;;;;;;4949674;29;20035;-58
2023/06/27 06:02:58;;;;;;;9.23;3.28;;;;;;;;;;4951430;29;20102;-59
2023/06/27 06:05:23;;;;;;;5.88;2.90;;;;;;;;;;4957395;29;20110;-59
2023/06/27 06:07:49;;;;;;;11.32;3.50;;;;;;;;;;4953560;29;20420;-58
2023/06/27 06:10:14;;;;;;;6.20;2.90;;;;;;;;;;4954904;29;20031;-57
2023/06/27 06:12:40;;;;;;;11.10;3.30;;;;;;;;;;4956935;28;20095;-58
2023/06/27 06:15:06;;;;;;;7.93;2.92;;;;;;;;;;4953682;28;20059;-58
2023/06/27 06:17:31;;;;;;;9.27;3.30;;;;;;;;;;4938928;29;20031;-58
2023/06/27 06:19:56;;;;;;;6.85;3.20;;;;;;;;;;4956890;29;20027;-58
2023/06/27 06:22:21;;;;;;;7.30;2.65;;;;;;;;;;4952512;29;20028;-58
2023/06/27 06:24:47;;;;;;;8.02;2.70;;;;;;;;;;4953530;29;20417;-58
2023/06/27 06:27:13;;;;;;;8.20;2.95;;;;;;;;;;4956991;29;20031;-58
2023/06/27 06:29:38;;;;;;;6.95;2.40;;;;;;;;;;4955982;29;20538;-59
2023/06/27 06:32:04;;;;;;;10.35;3.05;;;;;;;;;;4955947;28;20747;-58
2023/06/27 06:34:29;;;;;;;8.90;2.95;;;;;;;;;;4955664;28;20023;-58
2023/06/27 06:36:55;;;;;;;6.78;2.58;;;;;;;;;;4938261;28;20390;-58
2023/06/27 06:39:20;;;;;;;6.90;2.80;;;;;;;;;;4956657;28;20410;-58
2023/06/27 06:41:45;;;;;;;8.85;2.83;;;;;;;;;;4953784;29;20509;-60
2023/06/27 06:44:11;;;;;;;9.13;2.13;;;;;;;;;;4956760;28;20027;-59
2023/06/27 06:46:37;;;;;;;4.82;2.22;;;;;;;;;;4940214;28;20485;-58
2023/06/27 06:49:03;;;;;;;7.65;2.13;;;;;;;;;;4952563;28;20470;-60
2023/06/27 06:51:28;;;;;;;6.00;2.40;;;;;;;;;;4951126;28;20154;-59
2023/06/27 06:53:53;;;;;;;5.18;1.90;;;;;;;;;;4950840;29;20031;-58
2023/06/27 06:56:19;;;;;;;7.35;1.92;;;;;;;;;;4953364;29;20362;-58
2023/06/27 06:58:44;;;;;;;5.75;1.92;;;;;;;;;;4956492;28;20018;-57
2023/06/27 07:01:09;;;;;;;5.03;1.90;;;;;;;;;;4950793;28;20071;-58
2023/06/27 07:03:34;;;;;;;5.18;1.90;;;;;;;;;;4947560;29;20043;-58
2023/06/27 07:06:00;;;;;;;8.90;2.05;;;;;;;;;;4945874;28;20374;-58
2023/06/27 07:08:25;;;;;;;6.13;2.00;;;;;;;;;;4943569;29;20019;-58
2023/06/27 07:10:50;;;;;;;6.95;1.95;;;;;;;;;;4956196;29;20055;-58
2023/06/27 07:13:16;;;;;;;6.05;1.98;;;;;;;;;;4955766;29;20489;-58
2023/06/27 07:15:41;;;;;;;7.95;1.90;;;;;;;;;;4953826;29;20103;-58
2023/06/27 07:18:06;;;;;;;7.20;1.50;;;;;;;;;;4955715;29;20055;-58
2023/06/27 07:20:32;;;;;;;4.32;1.30;;;;;;;;;;4955742;29;20030;-58
2023/06/27 07:22:57;;;;;;;6.80;1.40;;;;;;;;;;4955017;29;20034;-58
2023/06/27 07:25:23;;;;;;;6.68;2.00;;;;;;;;;;4953072;29;20470;-58
2023/06/27 07:27:49;;;;;;;3.70;1.20;;;;;;;;;;4955840;29;20046;-58
2023/06/27 07:30:15;;;;;;;4.28;1.20;;;;;;;;;;4956915;28;20101;-58
2023/06/27 07:32:40;;;;;;;9.55;1.40;;;;;;;;;;4975177;28;20130;-58
2023/06/27 07:35:05;;;;;;;6.53;1.20;;;;;;;;;;4966929;28;20525;-58
2023/06/27 07:37:31;;;;;;;7.32;1.30;;;;;;;;;;4955425;29;20026;-58
2023/06/27 07:39:57;;;;;;;5.13;1.10;;;;;;;;;;4939890;29;20031;-65
2023/06/27 07:42:23;;;;;;;5.70;1.30;;;;;;;;;;4936313;29;20020;-66
2023/06/27 07:44:48;;;;;;;5.15;1.20;;;;;;;;;;4939900;29;20141;-65
2023/06/27 07:47:14;;;;;;;7.72;1.50;;;;;;;;;;4954628;29;20414;-66
2023/06/27 07:49:39;;;;;;;4.97;1.10;;;;;;;;;;4954739;28;20029;-65
2023/06/27 07:52:06;;;;;;;4.55;1.10;;;;;;;;;;4955585;28;20478;-66
2023/06/27 07:54:32;;;;;;;4.10;1.05;;;;;;;;;;4953734;28;20086;-66
2023/06/27 07:56:57;;;;;;;5.57;1.30;;;;;;;;;;4955210;29;20489;-65
2023/06/27 07:59:22;;;;;;;4.90;1.17;;;;;;;;;;4955464;29;20192;-66
2023/06/27 08:01:48;;;;;;;7.00;1.00;;;;;;;;;;4955841;28;20027;-66
2023/06/27 08:04:15;;;;;;;5.97;1.15;;;;;;;;;;4951883;28;20109;-66
2023/06/27 08:06:40;;;;;;;4.80;1.17;;;;;;;;;;4964855;28;20037;-65
2023/06/27 08:09:06;;;;;;;6.47;1.30;;;;;;;;;;4966646;28;20023;-65
2023/06/27 08:11:31;;;;;;;4.65;1.10;;;;;;;;;;4942292;29;20509;-65
2023/06/27 08:13:56;;;;;;;4.00;1.08;;;;;;;;;;4935706;29;20033;-66
2023/06/27 08:16:22;;;;;;;6.10;1.20;;;;;;;;;;4954027;28;20114;-65
2023/06/27 08:18:47;;;;;;;4.57;1.05;;;;;;;;;;4955250;29;20384;-65
2023/06/27 08:21:12;;;;;;;4.47;1.00;;;;;;;;;;4954458;29;20027;-66
2023/06/27 08:23:38;;;;;;;4.80;1.08;;;;;;;;;;4954282;29;20054;-66
2023/06/27 08:26:03;;;;;;;5.60;1.42;;;;;;;;;;4954667;28;20075;-65
2023/06/27 08:28:28;;;;;;;4.03;1.00;;;;;;;;;;4954702;29;20083;-66
2023/06/27 08:30:55;;;;;;;6.00;0.90;;;;;;;;;;4949687;29;20027;-65
2023/06/27 08:33:21;;;;;;;6.35;1.60;;;;;;;;;;4935934;29;20422;-66
2023/06/27 08:35:46;;;;;;;3.30;1.10;;;;;;;;;;4952278;29;20086;-65
2023/06/27 08:38:11;;;;;;;4.32;0.98;;;;;;;;;;4953458;28;20035;-65
2023/06/27 08:40:37;;;;;;;4.75;1.10;;;;;;;;;;4953375;29;20031;-65
2023/06/27 08:43:04;;;;;;;6.78;1.60;;;;;;;;;;4951030;29;20028;-60
2023/06/27 08:45:29;;;;;;;6.50;1.33;;;;;;;;;;4953664;28;20019;-58
2023/06/27 08:47:55;;;;;;;4.85;0.93;;;;;;;;;;4953999;28;20035;-58
2023/06/27 08:50:21;;;;;;;5.03;0.90;;;;;;;;;;4952738;28;20058;-58
2023/06/27 08:52:56;;;;;;;3.83;0.90;;;;;;;;;;4952958;29;20038;-58
2023/06/27 08:55:40;;;;;;;5.28;1.05;;;;;;;;;;4954409;29;20027;-59
2023/06/27 08:58:08;;;;;;;3.72;0.93;;;;;;;;;;4957282;28;20031;-58
2023/06/27 09:00:34;;;;;;;3.80;0.80;;;;;;;;;;4953996;28;20389;-58
2023/06/27 09:02:59;;;;;;;3.97;1.00;;;;;;;;;;4954021;28;20062;-58
2023/06/27 09:05:24;;;;;;;4.45;1.00;;;;;;;;;;4957417;28;20438;-59
2023/06/27 09:07:50;;;;;;;3.67;0.90;;;;;;;;;;4956980;29;20058;-58
2023/06/27 09:10:15;;;;;;;4.55;0.80;;;;;;;;;;4958396;29;20469;-59
2023/06/27 09:12:44;;;;;;;4.22;0.70;;;;;;;;;;4955213;29;20074;-58
2023/06/27 09:15:10;;;;;;;2.33;0.70;;;;;;;;;;4958235;29;20508;-58
2023/06/27 09:17:36;;;;;;;3.50;0.80;;;;;;;;;;4956541;29;20035;-58
2023/06/27 09:20:01;;;;;;;4.55;0.93;;;;;;;;;;4958026;29;20015;-58
2023/06/27 09:22:27;;;;;;;4.53;0.80;;;;;;;;;;4956364;29;20081;-58
2023/06/27 09:25:14;;;;;;;2.30;0.70;;;;;;;;;;4958186;29;20023;-58
2023/06/27 09:27:39;;;;;;;4.18;0.85;;;;;;;;;;4960037;28;20015;-58
2023/06/27 09:30:05;;;;;;;3.83;0.90;;;;;;;;;;4958102;28;20023;-60
2023/06/27 09:32:30;;;;;;;5.03;0.80;;;;;;;;;;4954525;28;20461;-58
2023/06/27 09:34:56;;;;;;;4.80;0.98;;;;;;;;;;4956918;29;20058;-58
2023/06/27 09:37:21;;;;;;;4.55;1.05;;;;;;;;;;4955178;28;20073;-61
2023/06/27 09:39:46;;;;;;;3.45;1.17;;;;;;;;;;4956066;29;20035;-58
2023/06/27 09:42:12;;;;;;;7.88;1.00;;;;;;;;;;4954945;29;20098;-60
2023/06/27 09:44:37;;;;;;;2.58;0.90;;;;;;;;;;4955657;29;20094;-60
2023/06/27 09:47:08;;;;;;;3.17;0.90;;;;;;;;;;4952993;28;20520;-59
2023/06/27 09:49:34;;;;;;;4.60;0.93;;;;;;;;;;4938376;29;20020;-59
2023/06/27 09:52:03;;;;;;;8.65;0.80;;;;;;;;;;4941301;29;20034;-59
2023/06/27 09:54:28;;;;;;;5.22;1.02;;;;;;;;;;4957579;29;20469;-59
2023/06/27 09:56:56;;;;;;;3.45;0.80;;;;;;;;;;4956165;29;20023;-59
2023/06/27 09:59:26;;;;;;;4.28;0.80;;;;;;;;;;4954017;29;20042;-65
2023/06/27 10:01:52;;;;;;;4.25;0.90;;;;;;;;;;4948763;29;20053;-65
2023/06/27 10:04:20;;;;;;;5.38;0.80;;;;;;;;;;4953394;29;20445;-66
2023/06/27 10:06:45;;;;;;;3.65;0.65;;;;;;;;;;4938119;29;20031;-66
2023/06/27 10:09:11;;;;;;;3.20;0.85;;;;;;;;;;4959327;28;20548;-66
2023/06/27 10:11:37;;;;;;;4.35;0.90;;;;;;;;;;4955360;28;20023;-66
2023/06/27 10:14:03;;;;;;;3.47;0.85;;;;;;;;;;4964032;28;20014;-67
2023/06/27 10:16:29;;;;;;;5.53;0.80;;;;;;;;;;4961007;28;20044;-67
2023/06/27 10:18:55;;;;;;;2.20;0.70;;;;;;;;;;4937966;29;20426;-66
2023/06/27 10:21:22;;;;;;;5.88;1.00;;;;;;;;;;4938684;29;20027;-66
2023/06/27 10:23:49;;;;;;;4.85;1.00;;;;;;;;;;4955885;29;20097;-66
2023/06/27 10:26:17;;;;;;;3.10;0.80;;;;;;;;;;4957203;29;20377;-65
2023/06/27 10:28:47;;;;;;;1.75;0.70;;;;;;;;;;4957113;29;20019;-65
2023/06/27 10:31:33;;;;;;;3.42;0.90;;;;;;;;;;4956687;28;20081;-65
2023/06/27 10:33:58;;;;;;;4.15;0.70;;;;;;;;;;4940908;29;20031;-65
2023/06/27 10:36:23;;;;;;;4.72;1.00;;;;;;;;;;4956272;29;20367;-65
2023/06/27 10:38:49;;;;;;;5.18;0.73;;;;;;;;;;4955038;28;20023;-65
2023/06/27 10:41:24;;;;;;;3.42;0.70;;;;;;;;;;4955770;29;20493;-65
2023/06/27 10:43:51;;;;;;;3.78;0.75;;;;;;;;;;4955372;29;20031;-67
2023/06/27 10:46:17;;;;;;;2.60;0.70;;;;;;;;;;4954698;29;20057;-66
2023/06/27 10:49:11;;;;;;;6.07;0.90;;;;;;;;;;4954724;29;20549;-65
2023/06/27 10:51:43;;;;;;;3.88;0.85;;;;;;;;;;4914602;29;20028;-66
2023/06/27 10:54:12;;;;;;;2.10;0.70;;;;;;;;;;4904260;29;20487;-66
2023/06/27 10:56:42;;;;;;;3.53;0.70;;;;;;;;;;4897569;29;20068;-66
2023/06/27 10:59:11;;;;;;;2.35;0.70;;;;;;;;;;4913290;29;20107;-66
2023/06/27 11:01:55;;;;;;;6.53;0.82;;;;;;;;;;4915971;29;20036;-66
2023/06/27 11:04:22;;;;;;;1.80;0.80;;;;;;;;;;4898896;29;20052;-66
2023/06/27 11:06:47;;;;;;;4.57;0.63;;;;;;;;;;4900024;29;20418;-66
2023/06/27 11:09:14;;;;;;;2.45;0.90;;;;;;;;;;4912913;29;20028;-66
2023/06/27 11:11:39;;;;;;;4.70;0.90;;;;;;;;;;4898550;29;20040;-66
2023/06/27 11:14:06;;;;;;;3.40;0.70;;;;;;;;;;4896830;29;20020;-66
2023/06/27 11:16:32;;;;;;;3.58;0.70;;;;;;;;;;4897119;29;20072;-66
2023/06/27 11:18:58;;;;;;;2.42;0.60;;;;;;;;;;4902966;29;20028;-66
2023/06/27 11:21:24;;;;;;;3.88;0.80;;;;;;;;;;4906042;29;20041;-66
2023/06/27 11:23:50;;;;;;;6.32;0.60;;;;;;;;;;4913293;29;20534;-67
2023/06/27 11:26:15;;;;;;;4.07;0.60;;;;;;;;;;4915518;29;20107;-67
2023/06/27 11:28:41;;;;;;;5.40;0.90;;;;;;;;;;4931877;29;20079;-67
2023/06/27 11:31:07;;;;;;;3.78;0.85;;;;;;;;;;4938811;29;20016;-66
2023/06/27 11:33:33;;;;;;;2.75;0.60;;;;;;;;;;4934079;29;20482;-67
2023/06/27 11:35:59;;;;;;;2.58;0.80;;;;;;;;;;4936710;29;20023;-67
2023/06/27 11:38:24;;;;;;;4.30;1.00;;;;;;;;;;4935646;29;20037;-67
2023/06/27 11:40:51;;;;;;;4.43;1.23;;;;;;;;;;4936595;29;20094;-68
2023/06/27 11:43:18;;;;;;;5.50;1.00;;;;;;;;;;4935487;29;20433;-67
2023/06/27 11:45:47;;;;;;;3.20;0.80;;;;;;;;;;4936447;29;20027;-67
2023/06/27 11:48:12;;;;;;;5.18;1.25;;;;;;;;;;4934825;29;20447;-67
2023/06/27 11:50:52;;;;;;;2.40;0.80;;;;;;;;;;4936424;29;20039;-67
2023/06/27 11:53:19;;;;;;;5.47;1.00;;;;;;;;;;4934626;29;20350;-67
2023/06/27 11:55:44;;;;;;;3.25;0.77;;;;;;;;;;4935109;29;20370;-67
2023/06/27 11:58:10;;;;;;;4.18;1.20;;;;;;;;;;4921670;29;20032;-67
2023/06/27 12:00:35;;;;;;;5.03;0.90;;;;;;;;;;4930118;29;20032;-67
2023/06/27 12:03:03;;;;;;;5.40;1.00;;;;;;;;;;4941650;29;20047;-67
2023/06/27 12:05:28;;;;;;;5.20;1.10;;;;;;;;;;4957019;28;20370;-68
2023/06/27 12:07:57;;;;;;;7.53;1.30;;;;;;;;;;4958714;28;20130;-67
2023/06/27 12:10:23;;;;;;;7.70;1.38;;;;;;;;;;4974075;28;20015;-67
2023/06/27 12:12:49;;;;;;;4.55;1.08;;;;;;;;;;4964300;28;20031;-67
2023/06/27 12:15:15;;;;;;;3.63;1.00;;;;;;;;;;4954981;29;20027;-67
2023/06/27 12:18:02;;;;;;;4.18;1.10;;;;;;;;;;4953349;29;20047;-67
2023/06/27 12:20:42;;;;;;;4.50;0.90;;;;;;;;;;4955244;28;20030;-67
2023/06/27 12:23:07;;;;;;;4.47;0.90;;;;;;;;;;4953022;28;20031;-67
2023/06/27 12:25:32;;;;;;;5.68;1.25;;;;;;;;;;4955074;29;20038;-67
2023/06/27 12:27:58;;;;;;;4.45;0.90;;;;;;;;;;4968727;28;20106;-67
2023/06/27 12:30:23;;;;;;;5.07;1.15;;;;;;;;;;4964702;28;20023;-67
2023/06/27 12:32:48;;;;;;;4.82;1.10;;;;;;;;;;4952626;29;20033;-67
2023/06/27 12:35:17;;;;;;;4.03;0.90;;;;;;;;;;4955915;28;20033;-67
2023/06/27 12:37:43;;;;;;;3.25;0.80;;;;;;;;;;4958266;29;20425;-67
2023/06/27 12:40:09;;;;;;;4.20;1.00;;;;;;;;;;4957276;28;20167;-67
2023/06/27 12:42:34;;;;;;;6.75;1.05;;;;;;;;;;4958004;28;20359;-68
2023/06/27 12:44:59;;;;;;;3.95;0.90;;;;;;;;;;4958913;29;20027;-67
2023/06/27 12:47:24;;;;;;;3.85;1.13;;;;;;;;;;4956792;29;20026;-67
2023/06/27 12:49:50;;;;;;;4.55;1.02;;;;;;;;;;4956003;29;20023;-67
2023/06/27 12:52:15;;;;;;;4.80;0.98;;;;;;;;;;4957442;28;20106;-67
2023/06/27 12:54:40;;;;;;;6.97;1.20;;;;;;;;;;4957773;29;20031;-67
2023/06/27 12:57:06;;;;;;;5.47;1.00;;;;;;;;;;4950910;28;20073;-67
2023/06/27 12:59:31;;;;;;;6.32;1.17;;;;;;;;;;4965850;28;20034;-67
2023/06/27 13:01:57;;;;;;;6.45;1.20;;;;;;;;;;4960487;28;20438;-67
2023/06/27 13:04:23;;;;;;;5.25;1.08;;;;;;;;;;4943781;29;20107;-68
2023/06/27 13:06:48;;;;;;;3.75;0.90;;;;;;;;;;4958449;29;20095;-68
2023/06/27 13:09:14;;;;;;;6.15;0.95;;;;;;;;;;4957042;29;20385;-69
2023/06/27 13:11:39;;;;;;;3.95;1.10;;;;;;;;;;4958359;29;20022;-68
2023/06/27 13:14:04;;;;;;;5.53;0.88;;;;;;;;;;4956809;29;20390;-67
2023/06/27 13:16:29;;;;;;;5.07;1.00;;;;;;;;;;4958193;28;20030;-68
2023/06/27 13:18:55;;;;;;;5.05;1.08;;;;;;;;;;4956189;29;20074;-67
2023/06/27 13:21:20;;;;;;;8.15;2.03;;;;;;;;;;4958246;28;20061;-68
2023/06/27 13:23:48;;;;;;;3.25;0.77;;;;;;;;;;4956216;28;20102;-67
2023/06/27 13:26:14;;;;;;;4.00;0.90;;;;;;;;;;4958155;29;20027;-67
2023/06/27 13:28:39;;;;;;;3.83;0.80;;;;;;;;;;4957897;29;20086;-67
2023/06/27 13:31:05;;;;;;;6.03;1.00;;;;;;;;;;4957097;29;20035;-68
2023/06/27 13:33:30;;;;;;;7.25;1.10;;;;;;;;;;4956590;29;20034;-67
2023/06/27 13:35:55;;;;;;;7.45;1.30;;;;;;;;;;4960358;28;20060;-67
2023/06/27 13:38:21;;;;;;;6.30;1.13;;;;;;;;;;4957675;28;20023;-67
2023/06/27 13:40:46;;;;;;;14.88;1.88;;;;;;;;;;4956989;28;20041;-67
2023/06/27 13:43:11;;;;;;;10.00;1.55;;;;;;;;;;4957040;28;20038;-67
2023/06/27 13:45:36;;;;;;;9.13;1.92;;;;;;;;;;4957611;29;20023;-67
2023/06/27 13:48:02;;;;;;;17.27;2.25;;;;;;;;;;4952682;28;20533;-67
2023/06/27 13:50:27;;;;;;;7.93;1.98;;;;;;;;;;4953388;29;20015;-67
2023/06/27 13:52:56;;;;;;;9.00;2.33;;;;;;;;;;4956732;28;20023;-66
2023/06/27 13:55:21;;;;;;;7.65;1.67;;;;;;;;;;4956660;29;20019;-66
2023/06/27 13:57:47;;;;;;;8.15;1.60;;;;;;;;;;4957326;28;20390;-67
2023/06/27 14:00:12;;;;;;;6.63;1.73;;;;;;;;;;4957544;29;20047;-67
2023/06/27 14:02:38;;;;;;;20.23;2.20;;;;;;;;;;4954880;29;20492;-67
2023/06/27 14:05:03;;;;;;;7.05;2.00;;;;;;;;;;4959956;28;20019;-68
2023/06/27 14:07:28;;;;;;;5.72;1.70;;;;;;;;;;4957374;28;20425;-68
2023/06/27 14:09:54;;;;;;;7.63;2.15;;;;;;;;;;4955365;28;20023;-68
2023/06/27 14:12:19;;;;;;;12.52;2.20;;;;;;;;;;4951537;28;20024;-68
2023/06/27 14:14:44;;;;;;;7.95;1.92;;;;;;;;;;4937861;29;20020;-68
2023/06/27 14:17:10;;;;;;;5.45;1.73;;;;;;;;;;4937945;29;20028;-69
2023/06/27 14:19:35;;;;;;;9.48;2.22;;;;;;;;;;4952610;29;20397;-69
2023/06/27 14:22:00;;;;;;;6.93;1.70;;;;;;;;;;4956928;28;20026;-70
2023/06/27 14:24:26;;;;;;;6.10;1.55;;;;;;;;;;4955882;28;20031;-70
2023/06/27 14:26:51;;;;;;;6.13;1.58;;;;;;;;;;4957043;28;20381;-69
2023/06/27 14:29:16;;;;;;;7.53;1.40;;;;;;;;;;4955955;28;20023;-69
2023/06/27 14:31:41;;;;;;;5.40;1.42;;;;;;;;;;4955780;28;20016;-69
2023/06/27 14:34:07;;;;;;;6.40;1.50;;;;;;;;;;4947567;29;20031;-69
2023/06/27 14:36:33;;;;;;;8.15;1.85;;;;;;;;;;4937466;29;20513;-70
2023/06/27 14:38:58;;;;;;;7.45;1.33;;;;;;;;;;4961647;28;20086;-71